Antelope, Kansas
Current Conditions -  °F | °C
As of 11:15 PM on Sunday 19 Oct 2014 (Local Time) from KEWK Reporting Station
Clear Clear  
Wind Chill: 14°   Ceiling: Unl
Heat Index: 14°   Visibility: 10mi
Dew Point:   Wind: 8mph
Humidity: 72%   Direction: 170°S
Pressure: 30.03"   Gusts: NA
Location:  38.4689°N, 96.9315°W
Report Text: KEWK 200415Z AUTO 17007KT 10SM CLR 14/09 A3003 RMK AO1
Loading
Personal Weather Stations






























Interactive Weather Map
Tropical Storm Tracking
New forecast layout! Learn more

10-Day Weather Forecast

Advertisements
Track Severe Weather on mobile